McKinney, TX

6:44 AM CDT en Julio 29, 2017 (GMT -0500)
McKinney Historic District | | Change Station

Alt 652 ft 33.20 °N, 96.62 °W | Updated 4 seconds ago

Mostly Cloudy
Muy nublado
79.0 ° F
Sensación térmica 83 ° F
N
0.0
Viento Variable Viento desde SE
Gusts 0.0 mph

Hoy
Alta -- | Baja -- ° F
--% Posibilidad de precipitaciones
Ayer
Alta -- | Baja -- ° F
Precip. -- pul
Presión 29.86 pul
Visibilidad 10.0 Millas
Nubes Muy nublado 10000 ft
Índice de calor 83 ° F
Punto de rocío 74 ° F
Humedad 86%
Precipitaciones 0.00 pul
Espesor de la nieve No disponible.
6:37 AM 8:27 PM
Creciente, 39% visible
METAR KTKI 291053Z 04005KT 10SM BKN100 26/24 A2989 RMK AO2 SLP111 T02610244
Presión 29.86 pul
Visibilidad 10.0 Millas
Nubes Muy nublado 10000 ft
Índice de calor 83 ° F
Punto de rocío 74 ° F
Humedad 86%
Precipitaciones 0.00 pul
Espesor de la nieve No disponible.
6:37 AM 8:27 PM
Creciente, 39% visible
METAR KTKI 291053Z 04005KT 10SM BKN100 26/24 A2989 RMK AO2 SLP111 T02610244

Get Severe Weather Alerts

Thanks for signing up!

Be on the lookout for a verification email in your inbox.

You'll start receiving the daily forecast at 6 AM.

×

10-Day Weather Forecast

Almanac

Astronomía

Jul. 29, 2017 Salida Puesta
Hora real
Crepúsculo civil
Crepúsculo náutico
Crepúsculo astronómico
Luna
Horas de luz
Horas de luz
Tomorrow will be .
, % of the Moon is Illuminated

Extremos de hoy

Máximos del estado Bajos del estado

Community

WunderPhotos

Category 6

Welcome to Category 6. This is the collective home for Weather Underground's featured writeups by Dr. Jeff Masters (right), Bob Henson (left), Chris Burt, and other regular contributors.

Nearby

Calidad del aire

  Calidad del aire Índice AQ Contaminante
Not available.

Grosos de nieve

Estación Profundido Altura

Actividad de terremotos

Ciudad Distance Mag. Tiempo y dato
Magnitud mínima muestra es 2,5.

Temperaturas de aguas costeras

Lugar Temperatura

Stations

Estaciones meteorológicas cercanas

Ubicación de la estación Temp. Vientos helados Punto de rocío Humedad Viento Precip. Alt Actualizado Tipo
                   

Watches & Warnings

There are currently no watches in effect.